sensor_id;sensor_type;location;lat;lon;timestamp;P1;durP1;ratioP1;P2;durP2;ratioP2
73841;SDS011;62184;52.006;5.924;2022-07-10T10:50:48;5.95;;;3.58;;
73841;SDS011;62184;52.006;5.924;2022-07-10T10:53:16;6.50;;;3.40;;
73841;SDS011;62184;52.006;5.924;2022-07-10T10:58:48;5.00;;;2.77;;
73841;SDS011;62184;52.006;5.924;2022-07-10T11:01:25;5.70;;;2.88;;
73841;SDS011;62184;52.006;5.924;2022-07-10T11:06:42;6.25;;;3.20;;
73841;SDS011;62184;52.006;5.924;2022-07-10T11:09:23;5.80;;;3.28;;
73841;SDS011;62184;52.006;5.924;2022-07-10T11:11:58;4.83;;;3.20;;
73841;SDS011;62184;52.006;5.924;2022-07-10T11:14:29;5.75;;;2.88;;
73841;SDS011;62184;52.006;5.924;2022-07-10T11:16:58;6.13;;;3.47;;
73841;SDS011;62184;52.006;5.924;2022-07-10T11:19:25;6.28;;;3.25;;
73841;SDS011;62184;52.006;5.924;2022-07-10T11:25:08;5.57;;;2.57;;
73841;SDS011;62184;52.006;5.924;2022-07-10T11:28:06;5.55;;;2.97;;
73841;SDS011;62184;52.006;5.924;2022-07-10T11:30:43;4.95;;;3.00;;
73841;SDS011;62184;52.006;5.924;2022-07-10T11:33:11;5.90;;;2.97;;
73841;SDS011;62184;52.006;5.924;2022-07-10T11:35:39;6.55;;;2.85;;
73841;SDS011;62184;52.006;5.924;2022-07-10T11:38:09;6.17;;;2.87;;
73841;SDS011;62184;52.006;5.924;2022-07-10T11:40:35;6.60;;;3.00;;
73841;SDS011;62184;52.006;5.924;2022-07-10T11:43:02;6.82;;;3.28;;
73841;SDS011;62184;52.006;5.924;2022-07-10T11:45:30;5.28;;;2.83;;
73841;SDS011;62184;52.006;5.924;2022-07-10T11:47:58;5.53;;;3.35;;
73841;SDS011;62184;52.006;5.924;2022-07-10T11:50:25;5.57;;;3.00;;
73841;SDS011;62184;52.006;5.924;2022-07-10T11:52:53;5.30;;;2.85;;
73841;SDS011;62184;52.006;5.924;2022-07-10T11:55:23;6.57;;;2.92;;
73841;SDS011;62184;52.006;5.924;2022-07-10T11:57:52;6.78;;;2.58;;
73841;SDS011;62184;52.006;5.924;2022-07-10T12:00:22;5.38;;;3.03;;
73841;SDS011;62184;52.006;5.924;2022-07-10T12:02:50;5.17;;;2.90;;
73841;SDS011;62184;52.006;5.924;2022-07-10T12:05:29;5.20;;;2.67;;
73841;SDS011;62184;52.006;5.924;2022-07-10T12:08:00;5.80;;;2.47;;
73841;SDS011;62184;52.006;5.924;2022-07-10T12:10:29;5.53;;;2.50;;
73841;SDS011;62184;52.006;5.924;2022-07-10T12:13:04;5.45;;;3.05;;
73841;SDS011;62184;52.006;5.924;2022-07-10T12:15:32;4.63;;;2.80;;
73841;SDS011;62184;52.006;5.924;2022-07-10T12:18:00;5.00;;;2.47;;
73841;SDS011;62184;52.006;5.924;2022-07-10T12:20:26;4.43;;;3.20;;
73841;SDS011;62184;52.006;5.924;2022-07-10T12:22:53;6.95;;;3.35;;
73841;SDS011;62184;52.006;5.924;2022-07-10T12:25:20;5.53;;;2.50;;
73841;SDS011;62184;52.006;5.924;2022-07-10T12:27:49;5.90;;;2.93;;
73841;SDS011;62184;52.006;5.924;2022-07-10T12:30:21;5.88;;;3.05;;
73841;SDS011;62184;52.006;5.924;2022-07-10T12:32:48;5.03;;;3.30;;
73841;SDS011;62184;52.006;5.924;2022-07-10T12:35:14;5.22;;;2.65;;
73841;SDS011;62184;52.006;5.924;2022-07-10T12:37:47;5.95;;;3.13;;
73841;SDS011;62184;52.006;5.924;2022-07-10T12:43:04;5.15;;;2.90;;
73841;SDS011;62184;52.006;5.924;2022-07-10T12:45:31;4.50;;;2.60;;
73841;SDS011;62184;52.006;5.924;2022-07-10T12:47:57;5.57;;;2.78;;
73841;SDS011;62184;52.006;5.924;2022-07-10T12:50:24;6.22;;;2.78;;
73841;SDS011;62184;52.006;5.924;2022-07-10T12:55:35;4.80;;;2.35;;
73841;SDS011;62184;52.006;5.924;2022-07-10T12:58:09;5.65;;;2.40;;
73841;SDS011;62184;52.006;5.924;2022-07-10T13:00:36;5.03;;;3.25;;
73841;SDS011;62184;52.006;5.924;2022-07-10T13:03:16;4.45;;;2.22;;
73841;SDS011;62184;52.006;5.924;2022-07-10T13:05:45;4.43;;;2.50;;
73841;SDS011;62184;52.006;5.924;2022-07-10T13:08:12;5.72;;;3.00;;
73841;SDS011;62184;52.006;5.924;2022-07-10T13:10:41;4.93;;;2.55;;
73841;SDS011;62184;52.006;5.924;2022-07-10T13:13:11;7.38;;;2.45;;
73841;SDS011;62184;52.006;5.924;2022-07-10T13:15:38;5.30;;;2.90;;
73841;SDS011;62184;52.006;5.924;2022-07-10T13:18:05;5.87;;;2.97;;
73841;SDS011;62184;52.006;5.924;2022-07-10T13:20:33;4.00;;;2.58;;
73841;SDS011;62184;52.006;5.924;2022-07-10T13:22:59;7.68;;;2.78;;
73841;SDS011;62184;52.006;5.924;2022-07-10T13:25:26;4.93;;;3.22;;
73841;SDS011;62184;52.006;5.924;2022-07-10T13:27:52;5.45;;;3.15;;
73841;SDS011;62184;52.006;5.924;2022-07-10T13:30:22;6.53;;;2.87;;
73841;SDS011;62184;52.006;5.924;2022-07-10T13:32:49;5.60;;;3.20;;
73841;SDS011;62184;52.006;5.924;2022-07-10T13:35:15;6.65;;;3.15;;
73841;SDS011;62184;52.006;5.924;2022-07-10T13:37:41;4.45;;;2.70;;
73841;SDS011;62184;52.006;5.924;2022-07-10T13:40:08;5.72;;;3.22;;
73841;SDS011;62184;52.006;5.924;2022-07-10T13:42:35;6.87;;;2.93;;
73841;SDS011;62184;52.006;5.924;2022-07-10T13:45:02;5.60;;;2.97;;
73841;SDS011;62184;52.006;5.924;2022-07-10T13:47:32;5.28;;;3.05;;
73841;SDS011;62184;52.006;5.924;2022-07-10T13:49:58;7.32;;;2.85;;
73841;SDS011;62184;52.006;5.924;2022-07-10T13:52:25;4.30;;;2.53;;
73841;SDS011;62184;52.006;5.924;2022-07-10T13:54:51;5.53;;;2.80;;
73841;SDS011;62184;52.006;5.924;2022-07-10T13:57:17;5.95;;;3.13;;
73841;SDS011;62184;52.006;5.924;2022-07-10T13:59:44;6.00;;;3.17;;
73841;SDS011;62184;52.006;5.924;2022-07-10T14:02:10;6.07;;;2.28;;
73841;SDS011;62184;52.006;5.924;2022-07-10T14:04:39;4.75;;;2.58;;
73841;SDS011;62184;52.006;5.924;2022-07-10T14:07:06;5.83;;;3.23;;
73841;SDS011;62184;52.006;5.924;2022-07-10T14:09:32;5.28;;;3.03;;
73841;SDS011;62184;52.006;5.924;2022-07-10T14:11:58;5.30;;;2.78;;
73841;SDS011;62184;52.006;5.924;2022-07-10T14:14:25;5.85;;;3.35;;
73841;SDS011;62184;52.006;5.924;2022-07-10T14:16:51;4.93;;;2.08;;
73841;SDS011;62184;52.006;5.924;2022-07-10T14:19:18;5.57;;;2.67;;
73841;SDS011;62184;52.006;5.924;2022-07-10T14:21:47;6.13;;;2.55;;
73841;SDS011;62184;52.006;5.924;2022-07-10T14:24:13;5.40;;;2.67;;
73841;SDS011;62184;52.006;5.924;2022-07-10T14:26:40;4.68;;;2.03;;
73841;SDS011;62184;52.006;5.924;2022-07-10T14:29:06;5.38;;;2.42;;
73841;SDS011;62184;52.006;5.924;2022-07-10T14:31:32;6.23;;;2.53;;
73841;SDS011;62184;52.006;5.924;2022-07-10T14:33:59;6.25;;;2.75;;
73841;SDS011;62184;52.006;5.924;2022-07-10T14:36:26;5.80;;;3.28;;
73841;SDS011;62184;52.006;5.924;2022-07-10T14:38:55;4.95;;;2.78;;
73841;SDS011;62184;52.006;5.924;2022-07-10T14:41:22;5.05;;;2.85;;
73841;SDS011;62184;52.006;5.924;2022-07-10T14:43:50;5.37;;;3.10;;
73841;SDS011;62184;52.006;5.924;2022-07-10T14:46:17;6.30;;;2.80;;
73841;SDS011;62184;52.006;5.924;2022-07-10T14:48:43;5.95;;;3.10;;
73841;SDS011;62184;52.006;5.924;2022-07-10T14:51:10;7.30;;;3.17;;
73841;SDS011;62184;52.006;5.924;2022-07-10T14:53:36;5.07;;;2.60;;
73841;SDS011;62184;52.006;5.924;2022-07-10T14:56:05;7.10;;;3.10;;
73841;SDS011;62184;52.006;5.924;2022-07-10T14:58:33;5.53;;;2.70;;
73841;SDS011;62184;52.006;5.924;2022-07-10T15:01:00;4.82;;;2.85;;
73841;SDS011;62184;52.006;5.924;2022-07-10T15:03:27;5.53;;;2.80;;
73841;SDS011;62184;52.006;5.924;2022-07-10T15:05:53;5.70;;;3.03;;
73841;SDS011;62184;52.006;5.924;2022-07-10T15:08:19;5.27;;;3.00;;
73841;SDS011;62184;52.006;5.924;2022-07-10T15:10:46;5.88;;;2.70;;
73841;SDS011;62184;52.006;5.924;2022-07-10T15:13:15;7.18;;;3.22;;
73841;SDS011;62184;52.006;5.924;2022-07-10T15:15:42;6.10;;;2.35;;
73841;SDS011;62184;52.006;5.924;2022-07-10T15:18:08;5.70;;;3.30;;
73841;SDS011;62184;52.006;5.924;2022-07-10T15:20:35;5.47;;;2.80;;
73841;SDS011;62184;52.006;5.924;2022-07-10T15:23:01;5.07;;;2.85;;
73841;SDS011;62184;52.006;5.924;2022-07-10T15:25:28;4.85;;;3.10;;
73841;SDS011;62184;52.006;5.924;2022-07-10T15:27:55;4.80;;;2.42;;
73841;SDS011;62184;52.006;5.924;2022-07-10T15:30:24;5.13;;;3.13;;
73841;SDS011;62184;52.006;5.924;2022-07-10T15:32:51;4.70;;;2.50;;
73841;SDS011;62184;52.006;5.924;2022-07-10T15:35:17;5.22;;;2.67;;
73841;SDS011;62184;52.006;5.924;2022-07-10T15:37:43;5.15;;;3.03;;
73841;SDS011;62184;52.006;5.924;2022-07-10T15:40:10;11.45;;;3.47;;
73841;SDS011;62184;52.006;5.924;2022-07-10T15:42:36;5.78;;;3.17;;
73841;SDS011;62184;52.006;5.924;2022-07-10T15:45:03;6.57;;;2.93;;
73841;SDS011;62184;52.006;5.924;2022-07-10T15:47:34;13.10;;;2.97;;
73841;SDS011;62184;52.006;5.924;2022-07-10T15:50:00;5.40;;;3.20;;
73841;SDS011;62184;52.006;5.924;2022-07-10T15:52:26;7.10;;;2.92;;
73841;SDS011;62184;52.006;5.924;2022-07-10T15:54:53;8.75;;;3.50;;
73841;SDS011;62184;52.006;5.924;2022-07-10T15:57:19;7.47;;;2.77;;
73841;SDS011;62184;52.006;5.924;2022-07-10T15:59:45;7.00;;;3.15;;
73841;SDS011;62184;52.006;5.924;2022-07-10T16:02:12;5.75;;;3.28;;
73841;SDS011;62184;52.006;5.924;2022-07-10T16:04:41;5.88;;;2.97;;
73841;SDS011;62184;52.006;5.924;2022-07-10T16:07:07;6.75;;;3.20;;
73841;SDS011;62184;52.006;5.924;2022-07-10T16:09:34;5.90;;;2.80;;
73841;SDS011;62184;52.006;5.924;2022-07-10T16:12:00;4.93;;;2.78;;
73841;SDS011;62184;52.006;5.924;2022-07-10T16:14:26;6.45;;;3.33;;
73841;SDS011;62184;52.006;5.924;2022-07-10T16:16:53;5.80;;;2.92;;
73841;SDS011;62184;52.006;5.924;2022-07-10T16:19:19;6.10;;;2.65;;
73841;SDS011;62184;52.006;5.924;2022-07-10T16:21:48;5.93;;;3.13;;
73841;SDS011;62184;52.006;5.924;2022-07-10T16:24:15;8.85;;;3.00;;
73841;SDS011;62184;52.006;5.924;2022-07-10T16:26:41;8.05;;;3.03;;
73841;SDS011;62184;52.006;5.924;2022-07-10T16:29:07;5.60;;;2.83;;
73841;SDS011;62184;52.006;5.924;2022-07-10T16:31:34;6.35;;;2.70;;
73841;SDS011;62184;52.006;5.924;2022-07-10T16:34:00;5.43;;;2.40;;
73841;SDS011;62184;52.006;5.924;2022-07-10T16:36:26;6.72;;;2.55;;
73841;SDS011;62184;52.006;5.924;2022-07-10T16:38:56;5.90;;;2.80;;
73841;SDS011;62184;52.006;5.924;2022-07-10T16:41:22;6.13;;;2.28;;
73841;SDS011;62184;52.006;5.924;2022-07-10T16:43:49;5.28;;;2.22;;
73841;SDS011;62184;52.006;5.924;2022-07-10T16:46:15;4.80;;;2.30;;
73841;SDS011;62184;52.006;5.924;2022-07-10T16:48:42;6.25;;;3.00;;
73841;SDS011;62184;52.006;5.924;2022-07-10T16:51:08;6.88;;;3.20;;
73841;SDS011;62184;52.006;5.924;2022-07-10T16:53:35;5.45;;;2.75;;
73841;SDS011;62184;52.006;5.924;2022-07-10T16:56:04;6.75;;;2.90;;
73841;SDS011;62184;52.006;5.924;2022-07-10T16:58:32;5.17;;;2.77;;
73841;SDS011;62184;52.006;5.924;2022-07-10T17:00:59;4.60;;;2.10;;
73841;SDS011;62184;52.006;5.924;2022-07-10T17:03:25;6.35;;;2.45;;
73841;SDS011;62184;52.006;5.924;2022-07-10T17:05:52;4.70;;;2.83;;
73841;SDS011;62184;52.006;5.924;2022-07-10T17:08:18;5.47;;;3.00;;
73841;SDS011;62184;52.006;5.924;2022-07-10T17:10:45;8.30;;;3.53;;
73841;SDS011;62184;52.006;5.924;2022-07-10T17:13:13;5.18;;;3.20;;
73841;SDS011;62184;52.006;5.924;2022-07-10T17:15:40;7.38;;;3.40;;
73841;SDS011;62184;52.006;5.924;2022-07-10T17:18:06;6.85;;;2.95;;
73841;SDS011;62184;52.006;5.924;2022-07-10T17:20:33;5.72;;;3.05;;
73841;SDS011;62184;52.006;5.924;2022-07-10T17:22:59;5.90;;;2.47;;
73841;SDS011;62184;52.006;5.924;2022-07-10T17:25:25;5.40;;;2.33;;
73841;SDS011;62184;52.006;5.924;2022-07-10T17:27:52;6.05;;;3.50;;
73841;SDS011;62184;52.006;5.924;2022-07-10T17:30:21;5.78;;;3.40;;
73841;SDS011;62184;52.006;5.924;2022-07-10T17:32:48;5.85;;;2.85;;
73841;SDS011;62184;52.006;5.924;2022-07-10T17:35:14;4.97;;;2.73;;
73841;SDS011;62184;52.006;5.924;2022-07-10T17:37:41;5.70;;;2.33;;
73841;SDS011;62184;52.006;5.924;2022-07-10T17:40:08;7.25;;;3.22;;
73841;SDS011;62184;52.006;5.924;2022-07-10T17:42:35;6.60;;;3.35;;
73841;SDS011;62184;52.006;5.924;2022-07-10T17:45:02;5.68;;;2.92;;
73841;SDS011;62184;52.006;5.924;2022-07-10T17:47:32;4.30;;;2.63;;
73841;SDS011;62184;52.006;5.924;2022-07-10T17:49:58;5.70;;;2.50;;
73841;SDS011;62184;52.006;5.924;2022-07-10T17:52:24;6.13;;;3.17;;
73841;SDS011;62184;52.006;5.924;2022-07-10T17:54:51;6.38;;;2.50;;
73841;SDS011;62184;52.006;5.924;2022-07-10T17:57:17;6.53;;;2.80;;
73841;SDS011;62184;52.006;5.924;2022-07-10T17:59:44;5.43;;;2.70;;
73841;SDS011;62184;52.006;5.924;2022-07-10T18:02:10;6.60;;;2.92;;
73841;SDS011;62184;52.006;5.924;2022-07-10T18:04:39;6.35;;;2.90;;
73841;SDS011;62184;52.006;5.924;2022-07-10T18:07:05;7.28;;;3.28;;
73841;SDS011;62184;52.006;5.924;2022-07-10T18:09:32;6.20;;;3.08;;
73841;SDS011;62184;52.006;5.924;2022-07-10T18:11:58;5.37;;;3.00;;
73841;SDS011;62184;52.006;5.924;2022-07-10T18:14:25;6.65;;;3.08;;
73841;SDS011;62184;52.006;5.924;2022-07-10T18:16:51;5.57;;;3.22;;
73841;SDS011;62184;52.006;5.924;2022-07-10T18:19:17;6.32;;;3.50;;
73841;SDS011;62184;52.006;5.924;2022-07-10T18:21:47;6.72;;;3.00;;
73841;SDS011;62184;52.006;5.924;2022-07-10T18:24:13;6.33;;;2.87;;
73841;SDS011;62184;52.006;5.924;2022-07-10T18:26:39;6.93;;;3.22;;
73841;SDS011;62184;52.006;5.924;2022-07-10T18:29:06;5.82;;;3.22;;
73841;SDS011;62184;52.006;5.924;2022-07-10T18:31:32;6.18;;;3.13;;
73841;SDS011;62184;52.006;5.924;2022-07-10T18:33:58;7.60;;;3.40;;
73841;SDS011;62184;52.006;5.924;2022-07-10T18:36:25;7.53;;;2.87;;
73841;SDS011;62184;52.006;5.924;2022-07-10T18:38:54;5.60;;;2.85;;
73841;SDS011;62184;52.006;5.924;2022-07-10T18:41:20;7.10;;;3.03;;
73841;SDS011;62184;52.006;5.924;2022-07-10T18:43:47;6.88;;;3.42;;
73841;SDS011;62184;52.006;5.924;2022-07-10T18:46:13;8.20;;;3.53;;
73841;SDS011;62184;52.006;5.924;2022-07-10T18:48:39;5.17;;;3.17;;
73841;SDS011;62184;52.006;5.924;2022-07-10T18:51:06;6.60;;;3.28;;
73841;SDS011;62184;52.006;5.924;2022-07-10T18:53:32;4.80;;;2.45;;
73841;SDS011;62184;52.006;5.924;2022-07-10T18:56:01;6.85;;;3.40;;
73841;SDS011;62184;52.006;5.924;2022-07-10T18:58:28;6.63;;;3.33;;
73841;SDS011;62184;52.006;5.924;2022-07-10T19:00:54;7.27;;;3.03;;
73841;SDS011;62184;52.006;5.924;2022-07-10T19:03:21;7.28;;;3.22;;
73841;SDS011;62184;52.006;5.924;2022-07-10T19:05:47;7.55;;;3.72;;
73841;SDS011;62184;52.006;5.924;2022-07-10T19:08:13;5.78;;;3.03;;
73841;SDS011;62184;52.006;5.924;2022-07-10T19:10:40;6.32;;;3.10;;
73841;SDS011;62184;52.006;5.924;2022-07-10T19:13:09;8.33;;;3.13;;
73841;SDS011;62184;52.006;5.924;2022-07-10T19:15:35;5.47;;;3.30;;
73841;SDS011;62184;52.006;5.924;2022-07-10T19:18:01;6.18;;;3.53;;
73841;SDS011;62184;52.006;5.924;2022-07-10T19:20:28;5.55;;;3.22;;
73841;SDS011;62184;52.006;5.924;2022-07-10T19:22:54;8.18;;;3.55;;
73841;SDS011;62184;52.006;5.924;2022-07-10T19:25:21;6.43;;;3.37;;
73841;SDS011;62184;52.006;5.924;2022-07-10T19:27:47;6.30;;;3.30;;
73841;SDS011;62184;52.006;5.924;2022-07-10T19:30:17;6.43;;;2.83;;
73841;SDS011;62184;52.006;5.924;2022-07-10T19:32:43;5.32;;;2.78;;
73841;SDS011;62184;52.006;5.924;2022-07-10T19:35:10;5.97;;;3.00;;
73841;SDS011;62184;52.006;5.924;2022-07-10T19:37:37;6.87;;;2.60;;
73841;SDS011;62184;52.006;5.924;2022-07-10T19:40:04;5.45;;;3.10;;
73841;SDS011;62184;52.006;5.924;2022-07-10T19:42:32;5.60;;;2.72;;
73841;SDS011;62184;52.006;5.924;2022-07-10T19:44:59;6.47;;;2.75;;
73841;SDS011;62184;52.006;5.924;2022-07-10T19:47:28;5.55;;;2.78;;
73841;SDS011;62184;52.006;5.924;2022-07-10T19:49:54;6.27;;;3.10;;
73841;SDS011;62184;52.006;5.924;2022-07-10T19:52:21;7.00;;;3.33;;
73841;SDS011;62184;52.006;5.924;2022-07-10T19:54:48;7.00;;;3.55;;
73841;SDS011;62184;52.006;5.924;2022-07-10T19:57:14;7.47;;;3.15;;
73841;SDS011;62184;52.006;5.924;2022-07-10T19:59:40;6.43;;;3.25;;
73841;SDS011;62184;52.006;5.924;2022-07-10T20:02:07;6.73;;;3.47;;
73841;SDS011;62184;52.006;5.924;2022-07-10T20:04:36;7.53;;;3.47;;
73841;SDS011;62184;52.006;5.924;2022-07-10T20:07:03;7.38;;;3.42;;
73841;SDS011;62184;52.006;5.924;2022-07-10T20:09:30;8.02;;;2.97;;
73841;SDS011;62184;52.006;5.924;2022-07-10T20:11:56;8.35;;;3.13;;
73841;SDS011;62184;52.006;5.924;2022-07-10T20:14:22;7.97;;;3.67;;
73841;SDS011;62184;52.006;5.924;2022-07-10T20:16:49;8.75;;;3.25;;
73841;SDS011;62184;52.006;5.924;2022-07-10T20:19:15;6.68;;;3.72;;
73841;SDS011;62184;52.006;5.924;2022-07-10T20:21:44;5.18;;;2.58;;
73841;SDS011;62184;52.006;5.924;2022-07-10T20:24:11;7.90;;;3.80;;
73841;SDS011;62184;52.006;5.924;2022-07-10T20:26:38;6.60;;;3.73;;
73841;SDS011;62184;52.006;5.924;2022-07-10T20:29:04;6.30;;;3.17;;
73841;SDS011;62184;52.006;5.924;2022-07-10T20:31:30;7.22;;;3.05;;
73841;SDS011;62184;52.006;5.924;2022-07-10T20:33:57;6.07;;;3.20;;
73841;SDS011;62184;52.006;5.924;2022-07-10T20:36:23;6.32;;;3.60;;
73841;SDS011;62184;52.006;5.924;2022-07-10T20:38:52;6.97;;;3.27;;
73841;SDS011;62184;52.006;5.924;2022-07-10T20:41:18;5.55;;;3.45;;
73841;SDS011;62184;52.006;5.924;2022-07-10T20:43:45;7.07;;;3.80;;
73841;SDS011;62184;52.006;5.924;2022-07-10T20:46:11;9.90;;;4.25;;
73841;SDS011;62184;52.006;5.924;2022-07-10T20:48:38;7.93;;;3.65;;
73841;SDS011;62184;52.006;5.924;2022-07-10T20:51:04;6.57;;;3.60;;
73841;SDS011;62184;52.006;5.924;2022-07-10T20:53:31;6.97;;;4.18;;
73841;SDS011;62184;52.006;5.924;2022-07-10T20:56:00;8.88;;;4.10;;
73841;SDS011;62184;52.006;5.924;2022-07-10T20:58:26;7.32;;;3.55;;
73841;SDS011;62184;52.006;5.924;2022-07-10T21:02:40;8.23;;;4.23;;
73841;SDS011;62184;52.006;5.924;2022-07-10T21:05:07;7.85;;;4.30;;
73841;SDS011;62184;52.006;5.924;2022-07-10T21:09:28;8.93;;;4.20;;
73841;SDS011;62184;52.006;5.924;2022-07-10T21:11:54;8.07;;;4.15;;
73841;SDS011;62184;52.006;5.924;2022-07-10T21:14:21;7.70;;;4.13;;
73841;SDS011;62184;52.006;5.924;2022-07-10T21:16:47;8.90;;;4.20;;
73841;SDS011;62184;52.006;5.924;2022-07-10T21:19:14;7.30;;;4.22;;
73841;SDS011;62184;52.006;5.924;2022-07-10T21:21:40;8.73;;;3.93;;
73841;SDS011;62184;52.006;5.924;2022-07-10T21:24:06;7.90;;;3.88;;
73841;SDS011;62184;52.006;5.924;2022-07-10T21:26:35;9.27;;;4.17;;
73841;SDS011;62184;52.006;5.924;2022-07-10T21:29:02;8.35;;;3.70;;
73841;SDS011;62184;52.006;5.924;2022-07-10T21:31:29;8.47;;;3.70;;
73841;SDS011;62184;52.006;5.924;2022-07-10T21:33:55;8.27;;;4.25;;
73841;SDS011;62184;52.006;5.924;2022-07-10T21:36:21;6.57;;;3.40;;
73841;SDS011;62184;52.006;5.924;2022-07-10T21:38:48;9.18;;;4.13;;
73841;SDS011;62184;52.006;5.924;2022-07-10T21:41:14;8.37;;;3.77;;
73841;SDS011;62184;52.006;5.924;2022-07-10T21:43:43;6.55;;;3.72;;
73841;SDS011;62184;52.006;5.924;2022-07-10T21:46:10;8.70;;;4.17;;
73841;SDS011;62184;52.006;5.924;2022-07-10T21:48:36;8.40;;;3.50;;
73841;SDS011;62184;52.006;5.924;2022-07-10T21:51:03;11.30;;;3.85;;
73841;SDS011;62184;52.006;5.924;2022-07-10T21:53:29;7.63;;;3.93;;
73841;SDS011;62184;52.006;5.924;2022-07-10T21:55:56;8.75;;;2.90;;
73841;SDS011;62184;52.006;5.924;2022-07-10T21:58:22;11.57;;;3.97;;
73841;SDS011;62184;52.006;5.924;2022-07-10T22:00:51;7.60;;;3.63;;
73841;SDS011;62184;52.006;5.924;2022-07-10T22:03:17;8.00;;;3.57;;
73841;SDS011;62184;52.006;5.924;2022-07-10T22:05:44;8.48;;;4.55;;
73841;SDS011;62184;52.006;5.924;2022-07-10T22:08:10;9.27;;;4.30;;
73841;SDS011;62184;52.006;5.924;2022-07-10T22:10:37;8.50;;;4.00;;
73841;SDS011;62184;52.006;5.924;2022-07-10T22:13:03;8.87;;;4.40;;
73841;SDS011;62184;52.006;5.924;2022-07-10T22:15:30;8.90;;;3.70;;
73841;SDS011;62184;52.006;5.924;2022-07-10T22:17:59;8.00;;;3.55;;
73841;SDS011;62184;52.006;5.924;2022-07-10T22:20:25;8.77;;;3.93;;
73841;SDS011;62184;52.006;5.924;2022-07-10T22:22:52;8.10;;;3.83;;
73841;SDS011;62184;52.006;5.924;2022-07-10T22:25:18;8.37;;;3.90;;
73841;SDS011;62184;52.006;5.924;2022-07-10T22:27:45;7.25;;;4.03;;
73841;SDS011;62184;52.006;5.924;2022-07-10T22:30:13;8.93;;;3.20;;
73841;SDS011;62184;52.006;5.924;2022-07-10T22:32:40;10.77;;;3.60;;
73841;SDS011;62184;52.006;5.924;2022-07-10T22:35:10;6.97;;;3.70;;
73841;SDS011;62184;52.006;5.924;2022-07-10T22:37:36;8.57;;;4.07;;
73841;SDS011;62184;52.006;5.924;2022-07-10T22:40:03;8.25;;;3.58;;
73841;SDS011;62184;52.006;5.924;2022-07-10T22:42:31;8.90;;;3.33;;
73841;SDS011;62184;52.006;5.924;2022-07-10T22:44:58;11.20;;;3.93;;
73841;SDS011;62184;52.006;5.924;2022-07-10T22:47:24;9.37;;;3.90;;
73841;SDS011;62184;52.006;5.924;2022-07-10T22:49:51;12.23;;;4.43;;
73841;SDS011;62184;52.006;5.924;2022-07-10T22:52:20;8.48;;;3.65;;
73841;SDS011;62184;52.006;5.924;2022-07-10T22:54:46;8.93;;;3.40;;
73841;SDS011;62184;52.006;5.924;2022-07-10T22:57:13;7.65;;;3.40;;
73841;SDS011;62184;52.006;5.924;2022-07-10T22:59:39;12.43;;;4.23;;
73841;SDS011;62184;52.006;5.924;2022-07-10T23:02:05;9.70;;;3.55;;
73841;SDS011;62184;52.006;5.924;2022-07-10T23:04:32;9.10;;;3.83;;
73841;SDS011;62184;52.006;5.924;2022-07-10T23:06:58;11.07;;;4.57;;
73841;SDS011;62184;52.006;5.924;2022-07-10T23:09:27;8.70;;;4.00;;
73841;SDS011;62184;52.006;5.924;2022-07-10T23:11:53;12.00;;;4.00;;
73841;SDS011;62184;52.006;5.924;2022-07-10T23:14:20;8.93;;;3.92;;
73841;SDS011;62184;52.006;5.924;2022-07-10T23:16:46;9.20;;;3.63;;
73841;SDS011;62184;52.006;5.924;2022-07-10T23:19:13;10.07;;;4.30;;
73841;SDS011;62184;52.006;5.924;2022-07-10T23:21:39;8.67;;;3.77;;
73841;SDS011;62184;52.006;5.924;2022-07-10T23:24:05;8.43;;;3.57;;
73841;SDS011;62184;52.006;5.924;2022-07-10T23:26:35;8.57;;;3.60;;
73841;SDS011;62184;52.006;5.924;2022-07-10T23:29:01;7.90;;;3.55;;
73841;SDS011;62184;52.006;5.924;2022-07-10T23:31:27;6.50;;;3.50;;
73841;SDS011;62184;52.006;5.924;2022-07-10T23:33:54;9.20;;;4.20;;
73841;SDS011;62184;52.006;5.924;2022-07-10T23:36:20;6.55;;;3.38;;
73841;SDS011;62184;52.006;5.924;2022-07-10T23:38:46;8.77;;;3.10;;
73841;SDS011;62184;52.006;5.924;2022-07-10T23:41:13;10.10;;;3.35;;
73841;SDS011;62184;52.006;5.924;2022-07-10T23:43:42;6.77;;;2.83;;
73841;SDS011;62184;52.006;5.924;2022-07-10T23:46:08;9.15;;;3.95;;
73841;SDS011;62184;52.006;5.924;2022-07-10T23:48:35;8.03;;;3.40;;
73841;SDS011;62184;52.006;5.924;2022-07-10T23:51:01;7.30;;;3.17;;
73841;SDS011;62184;52.006;5.924;2022-07-10T23:53:28;8.77;;;4.13;;
73841;SDS011;62184;52.006;5.924;2022-07-10T23:55:55;6.93;;;3.28;;
73841;SDS011;62184;52.006;5.924;2022-07-10T23:58:21;8.85;;;3.47;;
